Waupaca, WI

12:53 PM CDT on August 31, 2015 (GMT -0500)
Old Taylor Lake | | Change Station
CLOSE
Current Station
Personal Weather Station
Location: Waupaca, WI
Elevation: 893 ft
Nearby Weather Stations

Elev 893 ft 44.34 °N, 89.11 °W | Updated 11 seconds ago

Overcast
Overcast
74.0 °F
Feels Like 72 °F
N
0.0
Wind Variable Wind from NNW
Gusts 0.0 mph

Today
High -- | Low -- °F
--% Chance of Precip.
Yesterday
High -- | Low -- °F
Precip. -- in
6:17 AM 7:34 PM
Waning Gibbous, 94% visible
Pressure 30.04 in
Visibility 10.0 miles
Clouds Overcast 1600 ft
Heat Index 72 °F
Dew Point 71 °F
Humidity 90%
Rainfall in
Snow Depth Not available.
UV 3 out of 12
Pollen 10.20 out of 12
Air Quality Not available.
Flu Activity Not available.
METAR KPCZ 311735Z AUTO 19006KT 10SM OVC016 26/20 A3004 RMK AO2 T02550204
Pressure 30.04 in
Visibility 10.0 miles
Clouds Overcast 1600 ft
Heat Index 72 °F
Dew Point 71 °F
Humidity 90%
Rainfall in
Snow Depth Not available.
UV 3 out of 12
Pollen 10.20 out of 12
Air Quality Not available.
Flu Activity Not available.
METAR KPCZ 311735Z AUTO 19006KT 10SM OVC016 26/20 A3004 RMK AO2 T02550204

10-Day Weather Forecast

×

Almanac

Astronomy

Aug. 31, 2015 Rise Set
Actual Time
Civil Twilight
Nautical Twilight
Astronomical Twilight
Moon
Length of Visible Light
Length of Day
Tomorrow will be .
, % of the Moon is Illuminated

Today's Extremes

State Highs State Lows

Community

WunderPhotos

Upload Photos

1,851,328 photos uploaded!

WunderBlogs® & News

Nearby

Air Quality

  Air Quality AQ Index Pollutant
Not available.

Snow Depth

Station Depth Elevation

Earthquake Activity

City Distance Mag. Time & Date
Minimum magnitude displayed is 2.5.

Coastal Water Temperatures

Place Temperature

Stations

Nearby Weather Stations

Station Location Temp. Windchill Dew Point Humidity Wind Precip. Elev Updated Type